Grandview, Tennessee
Current Conditions -  °F | °C
As of 10:53 AM on Thursday 30 Oct 2014 (Local Time) from KCSV Reporting Station
Clear Clear  
Wind Chill: 47°   Ceiling: Unl
Heat Index: 49°   Visibility: 10mi
Dew Point: 36°   Wind: 5mph
Humidity: 61%   Direction: 330°NNW
Pressure: 30.14"   Gusts: NA
Location:  35.74°N, 84.84°W
Report Text: KCSV 301453Z AUTO 33004KT 10SM CLR 09/02 A3014 RMK AO2 SLP203 T00940022 50005
Loading
Personal Weather Stations






























Interactive Weather Map
Tropical Storm Tracking
New forecast layout! Learn more

10-Day Weather Forecast

Advertisements
Track Severe Weather on mobile